Time;durP1;ratioP1;P1;durP2;ratioP2;P2;SDS_P1;SDS_P2;PMS_P1;PMS_P2;Temp;Humidity;BMP_temperature;BMP_pressure;BME280_temperature;BME280_humidity;BME280_pressure;Samples;Min_cycle;Max_cycle;Signal;HPM_P1;HPM_P2
2022/05/05 00:01:28;;;;;;;0.60;0.60;;;15.90;99.70;;;;;;4390831;32;20089;-70
2022/05/05 00:03:54;;;;;;;0.75;0.75;;;15.80;99.40;;;;;;4411857;32;20089;-70
2022/05/05 00:06:20;;;;;;;0.40;0.40;;;15.80;99.70;;;;;;4427072;32;20180;-70
2022/05/05 00:08:45;;;;;;;0.50;0.50;;;15.80;99.90;;;;;;4425661;32;20061;-70
2022/05/05 00:14:28;;;;;;;0.68;0.60;;;15.60;99.90;;;;;;4418641;32;20117;-70
2022/05/05 00:16:42;;;;;;;0.47;0.47;;;15.60;99.90;;;;;;4424427;32;20065;-70
2022/05/05 00:19:07;;;;;;;0.40;0.40;;;15.60;99.90;;;;;;4424671;32;20069;-70
2022/05/05 00:21:32;;;;;;;0.60;0.60;;;15.70;99.90;;;;;;4412885;32;20084;-70
2022/05/05 00:23:58;;;;;;;0.40;0.40;;;15.70;99.90;;;;;;4421904;32;20627;-70
2022/05/05 00:26:24;;;;;;;1.23;0.93;;;15.60;99.90;;;;;;4425972;32;20098;-70
2022/05/05 00:28:49;;;;;;;0.30;0.30;;;15.60;99.90;;;;;;4413646;32;20124;-70
2022/05/05 00:31:15;;;;;;;0.60;0.60;;;15.60;99.90;;;;;;4391752;32;20362;-70
2022/05/05 00:33:40;;;;;;;3.08;1.00;;;15.50;99.90;;;;;;4406793;32;20164;-70
2022/05/05 00:36:06;;;;;;;2.97;0.88;;;15.30;99.90;;;;;;4426035;32;20072;-70
2022/05/05 00:38:31;;;;;;;1.25;0.85;;;15.20;99.90;;;;;;4427613;32;20535;-71
2022/05/05 00:40:57;;;;;;;0.60;0.60;;;15.30;99.90;;;;;;4427694;32;20140;-70
2022/05/05 00:43:23;;;;;;;0.47;0.47;;;15.40;99.90;;;;;;4425397;32;21504;-70
2022/05/05 00:45:49;;;;;;;0.40;0.40;;;15.60;99.90;;;;;;4427176;32;20572;-70
2022/05/05 00:48:15;;;;;;;1.05;0.70;;;15.60;99.90;;;;;;4426748;32;20081;-70
2022/05/05 00:50:40;;;;;;;1.75;0.75;;;15.50;99.90;;;;;;4417697;32;20123;-70
2022/05/05 00:53:06;;;;;;;0.35;0.35;;;15.40;99.90;;;;;;4413035;32;20068;-70
2022/05/05 00:55:34;;;;;;;0.30;0.30;;;15.40;99.90;;;;;;4424882;32;20069;-70
2022/05/05 00:58:02;;;;;;;0.93;0.60;;;15.50;99.90;;;;;;4418292;32;20085;-71
2022/05/05 01:00:28;;;;;;;1.05;0.93;;;15.50;99.90;;;;;;4397655;32;20139;-70
2022/05/05 01:02:54;;;;;;;0.52;0.52;;;15.40;99.90;;;;;;4399050;32;20421;-71
2022/05/05 01:05:20;;;;;;;1.35;1.00;;;15.40;99.90;;;;;;4423565;32;20123;-71
2022/05/05 01:07:46;;;;;;;0.50;0.50;;;15.30;99.90;;;;;;4425350;32;20540;-71
2022/05/05 01:10:12;;;;;;;1.90;1.17;;;15.10;99.90;;;;;;4427583;32;20595;-70
2022/05/05 01:12:37;;;;;;;0.55;0.55;;;15.00;99.90;;;;;;4425882;32;20058;-70
2022/05/05 01:15:05;;;;;;;0.50;0.50;;;14.80;99.90;;;;;;4427705;32;20094;-70
2022/05/05 01:17:30;;;;;;;0.40;0.30;;;14.90;99.90;;;;;;4427896;32;20089;-70
2022/05/05 01:19:55;;;;;;;0.50;0.50;;;14.90;99.90;;;;;;4422287;32;20588;-70
2022/05/05 01:22:21;;;;;;;1.10;0.73;;;14.90;99.90;;;;;;4409599;32;20446;-70
2022/05/05 01:28:32;;;;;;;3.42;0.80;;;14.70;99.90;;;;;;4408826;32;20609;-70
2022/05/05 01:30:18;;;;;;;6.40;2.05;;;14.80;99.90;;;;;;4385083;32;20081;-70
2022/05/05 01:32:43;;;;;;;4.57;1.85;;;14.70;99.90;;;;;;4396726;32;20082;-70
2022/05/05 01:35:09;;;;;;;0.30;0.30;;;14.80;99.90;;;;;;4424744;32;20061;-70
2022/05/05 01:37:34;;;;;;;0.88;0.55;;;14.90;99.90;;;;;;4436954;32;20069;-70
2022/05/05 01:39:59;;;;;;;0.93;0.88;;;14.80;99.90;;;;;;4440042;32;20479;-70
2022/05/05 01:42:25;;;;;;;1.40;0.60;;;14.80;99.90;;;;;;4439628;32;20200;-70
2022/05/05 01:44:50;;;;;;;2.75;0.77;;;14.80;99.90;;;;;;4440761;32;20065;-70
2022/05/05 01:47:16;;;;;;;0.50;0.50;;;14.60;99.90;;;;;;4441227;32;20449;-70
2022/05/05 01:49:45;;;;;;;0.32;0.32;;;14.60;99.90;;;;;;4438942;32;20731;-70
2022/05/05 01:52:10;;;;;;;0.40;0.40;;;14.60;99.90;;;;;;4423563;32;20578;-70
2022/05/05 01:54:38;;;;;;;0.32;0.32;;;14.60;99.90;;;;;;4440519;32;20064;-70
2022/05/05 01:57:04;;;;;;;19.10;0.93;;;14.60;99.90;;;;;;4436883;32;20089;-70
2022/05/05 01:59:30;;;;;;;0.30;0.30;;;14.50;99.90;;;;;;4414055;32;20131;-70
2022/05/05 02:01:56;;;;;;;2.05;0.80;;;14.50;99.90;;;;;;4405068;32;20127;-70
2022/05/05 02:04:21;;;;;;;1.70;0.57;;;14.60;99.90;;;;;;4427074;32;20495;-70
2022/05/05 02:06:47;;;;;;;0.47;0.45;;;14.50;99.90;;;;;;4439940;32;20078;-70
2022/05/05 02:09:12;;;;;;;0.60;0.60;;;14.30;99.90;;;;;;4437414;32;20448;-70
2022/05/05 02:11:41;;;;;;;0.25;0.25;;;14.10;99.90;;;;;;4439586;32;20061;-70
2022/05/05 02:14:07;;;;;;;0.32;0.32;;;14.20;99.90;;;;;;4440547;32;20078;-70
2022/05/05 02:16:33;;;;;;;2.00;0.62;;;14.10;99.90;;;;;;4439820;32;20066;-70
2022/05/05 02:18:58;;;;;;;0.40;0.40;;;14.20;99.90;;;;;;4440552;32;20317;-70
2022/05/05 02:21:24;;;;;;;0.40;0.40;;;14.00;99.90;;;;;;4428010;32;20060;-70
2022/05/05 02:23:49;;;;;;;0.50;0.50;;;14.10;99.90;;;;;;4432212;32;20057;-70
2022/05/05 02:26:14;;;;;;;0.40;0.40;;;14.00;99.90;;;;;;4440082;32;20085;-70
2022/05/05 02:28:40;;;;;;;1.92;1.05;;;13.90;99.90;;;;;;4426209;32;20064;-70
2022/05/05 02:31:05;;;;;;;1.80;0.60;;;13.90;99.90;;;;;;4404785;32;21083;-70
2022/05/05 02:33:31;;;;;;;0.52;0.45;;;13.90;99.90;;;;;;4419507;32;20065;-70
2022/05/05 02:38:43;;;;;;;1.02;0.60;;;13.90;99.90;;;;;;4414138;32;20073;-70
2022/05/05 02:41:08;;;;;;;0.52;0.43;;;13.90;99.90;;;;;;4427281;32;20138;-70
2022/05/05 02:43:34;;;;;;;0.80;0.80;;;13.70;99.90;;;;;;4427937;32;20112;-71
2022/05/05 02:45:59;;;;;;;1.17;0.47;;;13.70;99.90;;;;;;4428209;32;20112;-70
2022/05/05 02:48:25;;;;;;;0.50;0.50;;;13.60;99.90;;;;;;4428717;32;20509;-70
2022/05/05 02:50:50;;;;;;;0.40;0.40;;;13.60;99.90;;;;;;4420334;32;20082;-70
2022/05/05 02:54:50;;;;;;;0.73;0.62;;;13.60;99.90;;;;;;4417282;32;20068;-70
2022/05/05 02:56:01;;;;;;;0.50;0.50;;;13.50;99.90;;;;;;4417627;32;20536;-70
2022/05/05 02:58:28;;;;;;;0.52;0.52;;;13.40;99.90;;;;;;4418455;32;20077;-70
2022/05/05 03:00:54;;;;;;;0.50;0.50;;;13.50;99.90;;;;;;4391857;32;20613;-70
2022/05/05 03:03:19;;;;;;;0.62;0.55;;;13.50;99.90;;;;;;4404278;32;20135;-70
2022/05/05 03:05:45;;;;;;;1.62;0.77;;;13.40;99.90;;;;;;4428698;32;20070;-70
2022/05/05 03:08:11;;;;;;;0.40;0.40;;;13.40;99.90;;;;;;4431285;32;20066;-70
2022/05/05 03:10:36;;;;;;;0.50;0.50;;;13.40;99.90;;;;;;4432164;32;20183;-71
2022/05/05 03:13:02;;;;;;;0.50;0.50;;;13.30;99.90;;;;;;4428623;32;20513;-70
2022/05/05 03:15:27;;;;;;;0.45;0.45;;;13.20;99.90;;;;;;4430072;32;20061;-70
2022/05/05 03:17:53;;;;;;;0.57;0.57;;;13.10;99.90;;;;;;4430524;32;20058;-70
2022/05/05 03:20:18;;;;;;;0.40;0.40;;;13.20;99.90;;;;;;4424774;32;20065;-70
2022/05/05 03:22:44;;;;;;;4.68;0.40;;;13.20;99.90;;;;;;4412357;32;20127;-70
2022/05/05 03:25:09;;;;;;;8.00;0.70;;;13.00;99.90;;;;;;4428882;32;20086;-70
2022/05/05 03:27:37;;;;;;;0.77;0.62;;;12.90;99.90;;;;;;4424134;32;20069;-70
2022/05/05 03:30:03;;;;;;;1.08;0.60;;;12.90;99.90;;;;;;4400714;32;20116;-70
2022/05/05 03:32:28;;;;;;;0.40;0.40;;;13.00;99.90;;;;;;4401031;32;20361;-70
2022/05/05 03:34:55;;;;;;;0.40;0.40;;;13.10;99.90;;;;;;4424136;32;20094;-70
2022/05/05 03:37:20;;;;;;;0.50;0.50;;;13.10;99.90;;;;;;4427620;32;20116;-70
2022/05/05 03:39:46;;;;;;;0.40;0.40;;;13.00;99.90;;;;;;4424783;32;20116;-69
2022/05/05 03:42:11;;;;;;;0.90;0.60;;;13.00;99.90;;;;;;4424030;32;20101;-69
2022/05/05 03:44:37;;;;;;;0.50;0.50;;;12.90;99.90;;;;;;4428391;32;20111;-69
2022/05/05 03:47:03;;;;;;;2.80;0.45;;;13.00;99.90;;;;;;4431227;32;20077;-69
2022/05/05 03:49:29;;;;;;;0.70;0.70;;;13.00;99.90;;;;;;4427771;32;20650;-70
2022/05/05 03:51:56;;;;;;;2.28;0.60;;;13.00;99.90;;;;;;4406688;32;20329;-69
2022/05/05 03:54:24;;;;;;;3.20;1.50;;;12.90;99.90;;;;;;4415832;32;20089;-69
2022/05/05 03:56:49;;;;;;;1.55;1.20;;;13.10;99.90;;;;;;4430920;32;20081;-69
2022/05/05 03:59:15;;;;;;;0.40;0.40;;;13.00;99.90;;;;;;4407991;32;20410;-69
2022/05/05 04:01:40;;;;;;;0.95;0.95;;;13.00;99.90;;;;;;4387144;32;20089;-69
2022/05/05 04:04:06;;;;;;;0.40;0.40;;;13.10;99.90;;;;;;4411651;32;20093;-69
2022/05/05 04:06:32;;;;;;;0.40;0.40;;;13.10;99.90;;;;;;4428016;32;20081;-70
2022/05/05 04:08:58;;;;;;;1.10;0.70;;;13.10;99.90;;;;;;4420421;32;20058;-69
2022/05/05 04:11:24;;;;;;;19.65;1.85;;;13.10;99.90;;;;;;4423964;32;20557;-69
2022/05/05 04:13:50;;;;;;;1.67;0.93;;;13.10;99.90;;;;;;4423051;32;20085;-70
2022/05/05 04:16:16;;;;;;;1.30;0.60;;;13.10;99.90;;;;;;4428858;32;20430;-69
2022/05/05 04:18:41;;;;;;;3.05;1.02;;;13.10;99.90;;;;;;4422953;32;20611;-69
2022/05/05 04:21:07;;;;;;;0.68;0.68;;;13.10;99.90;;;;;;4408248;32;20502;-69
2022/05/05 04:23:33;;;;;;;3.40;0.50;;;13.10;99.90;;;;;;4374362;32;20562;-69
2022/05/05 04:25:59;;;;;;;0.62;0.62;;;13.10;99.90;;;;;;4378312;32;20272;-69
2022/05/05 04:28:25;;;;;;;0.60;0.60;;;13.10;99.90;;;;;;4377366;32;20269;-69
2022/05/05 04:30:51;;;;;;;0.55;0.55;;;13.00;99.90;;;;;;4364218;32;20085;-69
2022/05/05 04:33:17;;;;;;;11.68;0.95;;;12.90;99.90;;;;;;4368616;32;20451;-69
2022/05/05 04:35:44;;;;;;;1.17;1.08;;;12.90;99.90;;;;;;4414228;32;20094;-69
2022/05/05 04:38:09;;;;;;;1.33;0.55;;;12.90;99.90;;;;;;4425451;32;20127;-69
2022/05/05 04:40:35;;;;;;;0.40;0.40;;;12.90;99.90;;;;;;4425129;32;20123;-69
2022/05/05 04:43:00;;;;;;;3.20;0.73;;;12.80;99.90;;;;;;4426923;32;20118;-69
2022/05/05 04:45:26;;;;;;;7.47;1.23;;;12.90;99.90;;;;;;4424121;32;20535;-69
2022/05/05 04:47:51;;;;;;;0.62;0.47;;;13.00;99.90;;;;;;4424297;32;20081;-69
2022/05/05 04:50:17;;;;;;;1.23;1.00;;;13.00;99.90;;;;;;4415664;32;20102;-70
2022/05/05 04:52:44;;;;;;;10.88;0.73;;;12.90;99.90;;;;;;4390704;32;20074;-70
2022/05/05 04:55:09;;;;;;;0.50;0.50;;;12.90;99.90;;;;;;4383304;32;20599;-69
2022/05/05 04:57:36;;;;;;;9.50;1.05;;;12.80;99.90;;;;;;4413700;32;20524;-69
2022/05/05 05:00:04;;;;;;;2.15;0.85;;;12.80;99.90;;;;;;4398333;32;20298;-69
2022/05/05 05:02:30;;;;;;;22.33;0.98;;;12.90;99.90;;;;;;4380045;32;20366;-69
2022/05/05 05:04:55;;;;;;;0.40;0.40;;;13.00;99.90;;;;;;4380369;32;20140;-69
2022/05/05 05:07:21;;;;;;;0.55;0.50;;;12.90;99.90;;;;;;4387146;32;20077;-68
2022/05/05 05:09:48;;;;;;;0.30;0.30;;;12.90;99.90;;;;;;4381620;32;20085;-69
2022/05/05 05:12:14;;;;;;;6.12;0.82;;;12.90;99.90;;;;;;4379349;32;20085;-69
2022/05/05 05:14:39;;;;;;;1.00;0.60;;;13.00;99.90;;;;;;4379193;32;20098;-69
2022/05/05 05:17:05;;;;;;;1.42;0.98;;;13.00;99.90;;;;;;4391532;32;20601;-69
2022/05/05 05:19:30;;;;;;;1.77;0.98;;;13.10;99.90;;;;;;4337549;32;20569;-68
2022/05/05 05:21:56;;;;;;;1.62;0.52;;;13.10;99.90;;;;;;4336229;32;20139;-69
2022/05/05 05:24:21;;;;;;;0.85;0.65;;;13.00;99.90;;;;;;4317679;32;20168;-68
2022/05/05 05:26:47;;;;;;;1.12;0.65;;;13.00;99.90;;;;;;4331497;32;20275;-70
2022/05/05 05:29:13;;;;;;;0.50;0.50;;;13.00;99.90;;;;;;4338956;32;20122;-69
2022/05/05 05:31:38;;;;;;;0.45;0.45;;;13.10;99.90;;;;;;4316217;32;20145;-70
2022/05/05 05:34:04;;;;;;;7.10;0.62;;;13.20;99.90;;;;;;4351541;32;20391;-69
2022/05/05 05:36:31;;;;;;;0.35;0.35;;;13.10;99.90;;;;;;4357609;32;20397;-70
2022/05/05 05:38:57;;;;;;;0.43;0.43;;;13.20;99.90;;;;;;4365314;32;20735;-68
2022/05/05 05:41:24;;;;;;;0.60;0.60;;;13.20;99.90;;;;;;4374401;32;20285;-69
2022/05/05 05:43:50;;;;;;;0.40;0.40;;;13.10;99.90;;;;;;4381198;32;20074;-70
2022/05/05 05:46:15;;;;;;;0.85;0.68;;;13.10;99.90;;;;;;4395716;32;20743;-70
2022/05/05 05:48:41;;;;;;;1.10;0.65;;;13.10;99.90;;;;;;4400884;32;20319;-70
2022/05/05 05:51:07;;;;;;;6.55;0.93;;;13.20;99.90;;;;;;4395155;32;20290;-69
2022/05/05 05:53:32;;;;;;;0.45;0.45;;;13.20;99.90;;;;;;4386513;32;20283;-69
2022/05/05 05:55:58;;;;;;;0.80;0.70;;;13.40;99.90;;;;;;4401058;32;20205;-69
2022/05/05 05:58:23;;;;;;;0.47;0.47;;;13.50;99.90;;;;;;4396013;32;20149;-69
2022/05/05 06:00:50;;;;;;;0.47;0.47;;;13.60;99.90;;;;;;4384267;32;22150;-69
2022/05/05 06:04:16;;;;;;;1.55;0.52;;;13.50;99.90;;;;;;4372779;32;20235;-69
2022/05/05 06:06:01;;;;;;;3.53;1.27;;;13.50;99.90;;;;;;4361270;32;20105;-69
2022/05/05 06:08:27;;;;;;;0.52;0.52;;;13.40;99.90;;;;;;4387233;32;20101;-69
2022/05/05 06:10:52;;;;;;;0.40;0.40;;;13.50;99.90;;;;;;4392198;32;20447;-69
2022/05/05 06:13:18;;;;;;;0.52;0.52;;;13.50;99.90;;;;;;4392042;32;20552;-69
2022/05/05 06:15:43;;;;;;;0.43;0.43;;;13.60;99.90;;;;;;4388838;32;20096;-70
2022/05/05 06:18:09;;;;;;;3.50;1.02;;;13.70;99.90;;;;;;4383114;32;20225;-70
2022/05/05 06:20:34;;;;;;;0.40;0.40;;;13.70;99.90;;;;;;4363707;32;20088;-70
2022/05/05 06:23:00;;;;;;;0.65;0.60;;;13.70;99.90;;;;;;4371898;32;20081;-70
2022/05/05 06:25:26;;;;;;;0.40;0.40;;;14.00;99.90;;;;;;4390777;32;20736;-70
2022/05/05 06:27:52;;;;;;;0.40;0.40;;;14.00;99.90;;;;;;4388179;32;20394;-71
2022/05/05 06:30:18;;;;;;;0.50;0.50;;;13.90;99.90;;;;;;4383537;32;20350;-70
2022/05/05 06:32:44;;;;;;;3.70;1.35;;;14.10;99.90;;;;;;4361898;32;20922;-71
2022/05/05 06:35:10;;;;;;;0.80;0.80;;;14.10;99.90;;;;;;4366556;32;21819;-71
2022/05/05 06:37:36;;;;;;;1.20;0.60;;;14.20;99.90;;;;;;4383093;32;20077;-70
2022/05/05 06:40:04;;;;;;;0.68;0.68;;;14.40;99.90;;;;;;4396306;32;20489;-71
2022/05/05 06:42:30;;;;;;;3.92;1.30;;;14.40;99.90;;;;;;4395280;32;20085;-71
2022/05/05 06:44:55;;;;;;;0.70;0.70;;;14.40;99.90;;;;;;4399940;32;21580;-71
2022/05/05 06:47:21;;;;;;;0.60;0.60;;;14.30;99.90;;;;;;4398766;32;20116;-71
2022/05/05 06:49:47;;;;;;;0.88;0.82;;;14.40;99.90;;;;;;4380134;32;20433;-71
2022/05/05 06:52:12;;;;;;;2.92;0.40;;;14.40;99.90;;;;;;4379362;32;20258;-71
2022/05/05 06:54:38;;;;;;;0.60;0.60;;;14.60;99.90;;;;;;4391460;32;20236;-71
2022/05/05 06:57:04;;;;;;;1.60;1.00;;;14.60;99.90;;;;;;4396820;32;20429;-71
2022/05/05 06:59:30;;;;;;;0.52;0.50;;;14.70;99.90;;;;;;4392269;32;20595;-72
2022/05/05 07:02:00;;;;;;;0.55;0.50;;;14.80;99.90;;;;;;4373671;32;20090;-71
2022/05/05 07:05:27;;;;;;;2.55;0.80;;;14.80;99.90;;;;;;4368699;32;20085;-71
2022/05/05 07:07:13;;;;;;;0.82;0.82;;;14.80;99.90;;;;;;4378787;32;20511;-71
2022/05/05 07:10:57;;;;;;;0.45;0.45;;;14.90;99.90;;;;;;4394039;32;20791;-71
2022/05/05 07:12:26;;;;;;;10.23;1.27;;;14.80;99.90;;;;;;4380326;32;20368;-70
2022/05/05 07:14:51;;;;;;;4.40;1.33;;;15.00;99.90;;;;;;4392762;32;20525;-71
2022/05/05 07:17:17;;;;;;;0.57;0.57;;;15.00;99.90;;;;;;4393972;32;20097;-71
2022/05/05 07:19:43;;;;;;;1.30;1.20;;;15.20;99.90;;;;;;4379763;32;20961;-71
2022/05/05 07:22:08;;;;;;;0.40;0.40;;;15.20;99.90;;;;;;4374185;32;20924;-70
2022/05/05 07:24:34;;;;;;;0.75;0.43;;;15.10;99.90;;;;;;4384763;32;20093;-70
2022/05/05 07:27:01;;;;;;;2.00;0.77;;;14.90;99.90;;;;;;4389710;32;20275;-70
2022/05/05 07:29:27;;;;;;;2.47;0.80;;;14.80;99.90;;;;;;4381024;32;20331;-70
2022/05/05 07:31:53;;;;;;;0.50;0.50;;;14.80;99.90;;;;;;4366377;32;20350;-70
2022/05/05 07:34:19;;;;;;;0.82;0.62;;;14.90;99.90;;;;;;4356041;32;20092;-71
2022/05/05 07:36:45;;;;;;;0.68;0.68;;;15.00;99.90;;;;;;4353876;32;172374;-71
2022/05/05 07:39:11;;;;;;;4.37;1.25;;;15.20;99.90;;;;;;4362545;32;20319;-69
2022/05/05 07:41:37;;;;;;;0.60;0.60;;;15.40;99.90;;;;;;4373843;32;20050;-72
2022/05/05 07:44:04;;;;;;;1.25;0.98;;;15.60;99.90;;;;;;4388104;32;20910;-71
2022/05/05 07:46:30;;;;;;;0.47;0.47;;;15.60;99.90;;;;;;4378601;32;20114;-71
2022/05/05 07:48:56;;;;;;;0.95;0.60;;;15.60;99.90;;;;;;4370171;32;20089;-71
2022/05/05 07:51:21;;;;;;;0.50;0.50;;;15.80;99.90;;;;;;4352258;32;20533;-71
2022/05/05 07:54:34;;;;;;;2.40;0.62;;;16.10;99.90;;;;;;4358136;32;20320;-71
2022/05/05 07:56:32;;;;;;;0.73;0.55;;;16.20;99.90;;;;;;4363675;32;20456;-72
2022/05/05 07:58:58;;;;;;;1.27;0.82;;;16.50;99.90;;;;;;4387201;32;20105;-72
2022/05/05 08:01:23;;;;;;;0.47;0.47;;;16.50;99.90;;;;;;4370282;32;20080;-71
2022/05/05 08:03:49;;;;;;;0.90;0.85;;;16.30;99.90;;;;;;4358857;32;20778;-71
2022/05/05 08:06:14;;;;;;;0.40;0.40;;;16.30;99.90;;;;;;4379826;32;20126;-71
2022/05/05 08:08:40;;;;;;;0.57;0.57;;;16.30;99.90;;;;;;4379577;32;20089;-71
2022/05/05 08:11:05;;;;;;;0.73;0.73;;;16.40;99.90;;;;;;4384160;32;20237;-71
2022/05/05 08:13:33;;;;;;;0.65;0.50;;;16.40;99.90;;;;;;4385905;32;20096;-72
2022/05/05 08:15:58;;;;;;;1.15;1.00;;;16.50;99.90;;;;;;4384476;32;20456;-72
2022/05/05 08:18:24;;;;;;;0.70;0.65;;;16.50;99.90;;;;;;4380913;32;21265;-71
2022/05/05 08:20:49;;;;;;;1.52;0.68;;;16.50;99.90;;;;;;4367514;32;20781;-72
2022/05/05 08:23:15;;;;;;;7.60;2.35;;;16.50;99.90;;;;;;4373403;32;20133;-72
2022/05/05 08:28:28;;;;;;;0.93;0.60;;;16.50;99.90;;;;;;4373410;32;20487;-71
2022/05/05 08:30:56;;;;;;;5.75;1.37;;;16.80;99.90;;;;;;4383111;32;20667;-72
2022/05/05 08:33:23;;;;;;;2.85;1.62;;;16.70;99.90;;;;;;4366582;32;20093;-71
2022/05/05 08:35:49;;;;;;;0.55;0.55;;;16.60;99.90;;;;;;4380059;32;20569;-72
2022/05/05 08:38:17;;;;;;;1.15;0.62;;;16.40;99.90;;;;;;4378314;32;20140;-71
2022/05/05 08:40:43;;;;;;;2.28;0.45;;;16.50;99.90;;;;;;4381590;32;20534;-70
2022/05/05 08:43:09;;;;;;;0.47;0.47;;;16.70;99.90;;;;;;4387378;32;20113;-72
2022/05/05 08:45:35;;;;;;;0.43;0.43;;;16.80;99.90;;;;;;4383972;32;20163;-71
2022/05/05 08:48:05;;;;;;;2.92;1.12;;;17.10;99.90;;;;;;4385476;32;20116;-72
2022/05/05 08:50:32;;;;;;;0.93;0.93;;;17.20;99.90;;;;;;4371455;32;20175;-72
2022/05/05 08:53:00;;;;;;;0.35;0.35;;;17.30;99.90;;;;;;4363279;32;22354;-71
2022/05/05 08:55:26;;;;;;;0.30;0.30;;;17.20;99.90;;;;;;4383693;32;20172;-73
2022/05/05 08:57:52;;;;;;;0.62;0.60;;;17.20;99.90;;;;;;4383442;32;20093;-73
2022/05/05 09:00:18;;;;;;;0.40;0.40;;;17.40;99.90;;;;;;4375645;32;21183;-72
2022/05/05 09:02:44;;;;;;;8.95;0.82;;;17.50;99.90;;;;;;4364656;32;20708;-72
2022/05/05 09:05:10;;;;;;;0.40;0.40;;;17.30;99.90;;;;;;4369996;32;20950;-73
2022/05/05 09:07:52;;;;;;;0.32;0.32;;;17.30;99.90;;;;;;4385888;32;20125;-72
2022/05/05 09:10:20;;;;;;;1.65;1.12;;;17.40;99.90;;;;;;4381254;32;20262;-71
2022/05/05 09:12:59;;;;;;;1.65;0.80;;;17.60;99.90;;;;;;4383486;32;20188;-72
2022/05/05 09:15:34;;;;;;;1.55;0.88;;;17.60;99.90;;;;;;4389314;32;20154;-72
2022/05/05 09:18:20;;;;;;;0.30;0.30;;;17.80;99.90;;;;;;4381582;32;20125;-72
2022/05/05 09:20:48;;;;;;;0.60;0.60;;;17.90;99.90;;;;;;4355223;32;21131;-72
2022/05/05 09:23:28;;;;;;;0.70;0.70;;;17.70;99.90;;;;;;4335997;32;20244;-72
2022/05/05 09:25:54;;;;;;;22.00;0.95;;;17.70;99.90;;;;;;4345975;32;20451;-72
2022/05/05 09:28:21;;;;;;;0.28;0.28;;;17.80;99.90;;;;;;4357754;32;20597;-70
2022/05/05 09:30:49;;;;;;;0.60;0.60;;;17.90;99.90;;;;;;4369130;32;20300;-66
2022/05/05 09:33:17;;;;;;;4.95;1.25;;;18.10;99.90;;;;;;4359052;32;20446;-71
2022/05/05 09:35:44;;;;;;;0.37;0.37;;;18.10;99.90;;;;;;4371131;32;20233;-70
2022/05/05 09:38:09;;;;;;;0.40;0.40;;;18.20;99.90;;;;;;4379750;32;20109;-70
2022/05/05 09:40:35;;;;;;;2.15;1.08;;;18.30;99.90;;;;;;4388628;32;20360;-70
2022/05/05 09:43:01;;;;;;;0.43;0.43;;;18.40;99.90;;;;;;4390032;32;20518;-70
2022/05/05 09:45:32;;;;;;;0.30;0.30;;;18.50;99.90;;;;;;4383855;32;20545;-70
2022/05/05 09:47:59;;;;;;;0.68;0.68;;;18.70;99.90;;;;;;4369728;32;20153;-69
2022/05/05 09:50:28;;;;;;;0.85;0.85;;;18.80;99.90;;;;;;4375202;32;20494;-69
2022/05/05 09:57:45;;;;;;;0.55;0.55;;;19.00;99.90;;;;;;4371313;32;20181;-69
2022/05/05 09:58:35;;;;;;;0.40;0.40;;;19.20;99.50;;;;;;4365636;32;20248;-69
2022/05/05 10:04:19;;;;;;;0.50;0.50;;;19.40;99.10;;;;;;4356563;32;20397;-69
2022/05/05 10:06:34;;;;;;;0.40;0.40;;;19.10;99.10;;;;;;4368393;32;20118;-70
2022/05/05 10:09:06;;;;;;;2.50;1.40;;;18.70;99.10;;;;;;4383698;32;20234;-70
2022/05/05 10:11:32;;;;;;;0.30;0.30;;;18.50;99.20;;;;;;4390233;32;20110;-70
2022/05/05 10:14:00;;;;;;;0.45;0.45;;;18.50;99.80;;;;;;4382010;32;20089;-70
2022/05/05 10:16:26;;;;;;;0.55;0.55;;;18.40;99.90;;;;;;4375588;32;20101;-70
2022/05/05 10:18:53;;;;;;;0.70;0.40;;;18.40;99.90;;;;;;4359556;32;20627;-70
2022/05/05 10:21:43;;;;;;;0.80;0.60;;;18.60;99.90;;;;;;4363358;32;20286;-70
2022/05/05 10:24:14;;;;;;;0.60;0.60;;;18.80;98.70;;;;;;4361782;32;20097;-70
2022/05/05 10:26:40;;;;;;;15.00;0.50;;;19.30;98.00;;;;;;4382415;32;20081;-70
2022/05/05 10:29:41;;;;;;;2.03;1.05;;;19.50;99.20;;;;;;4392988;32;20101;-69
2022/05/05 10:32:19;;;;;;;0.85;0.68;;;19.40;97.10;;;;;;4374368;32;20324;-71
2022/05/05 10:35:20;;;;;;;3.40;1.25;;;19.10;99.50;;;;;;4375248;32;20100;-70
2022/05/05 10:37:45;;;;;;;0.50;0.50;;;19.00;98.80;;;;;;4381656;32;20069;-70
2022/05/05 10:40:11;;;;;;;19.37;1.25;;;18.80;98.80;;;;;;4397556;32;20431;-68
2022/05/05 10:42:49;;;;;;;1.05;0.85;;;18.70;99.90;;;;;;4399741;32;20105;-69
2022/05/05 10:45:17;;;;;;;2.53;0.95;;;18.70;99.40;;;;;;4391481;32;20123;-69
2022/05/05 10:47:55;;;;;;;2.42;1.45;;;18.70;99.40;;;;;;4381514;32;20183;-68
2022/05/05 10:50:39;;;;;;;0.77;0.73;;;19.00;98.20;;;;;;4375299;32;20829;-70
2022/05/05 10:53:07;;;;;;;0.62;0.47;;;19.40;97.40;;;;;;4354608;32;20252;-70
2022/05/05 10:55:42;;;;;;;6.70;1.35;;;19.90;96.10;;;;;;4379356;32;20225;-70
2022/05/05 10:58:10;;;;;;;0.60;0.60;;;20.10;96.40;;;;;;4384038;32;20151;-70
2022/05/05 11:00:40;;;;;;;0.75;0.75;;;20.10;96.10;;;;;;4370050;32;20168;-69
2022/05/05 11:03:09;;;;;;;0.30;0.30;;;20.00;96.40;;;;;;4365376;32;20132;-69
2022/05/05 11:05:36;;;;;;;0.40;0.40;;;20.00;96.90;;;;;;4373954;32;20275;-69
2022/05/05 11:08:20;;;;;;;0.73;0.73;;;20.20;96.80;;;;;;4389652;32;21069;-70
2022/05/05 11:11:51;;;;;;;0.60;0.50;;;20.30;95.00;;;;;;4385182;32;20077;-70
2022/05/05 11:14:01;;;;;;;3.58;0.68;;;20.20;95.90;;;;;;4370514;32;20595;-68
2022/05/05 11:21:35;;;;;;;1.45;0.75;;;19.50;96.40;;;;;;4368376;32;20241;-68
2022/05/05 11:22:23;;;;;;;2.60;1.00;;;19.40;95.80;;;;;;4359324;32;20488;-68
2022/05/05 11:24:50;;;;;;;0.90;0.80;;;19.30;96.50;;;;;;4383957;32;20101;-70
2022/05/05 11:27:20;;;;;;;0.40;0.40;;;19.70;96.70;;;;;;4382836;32;20361;-70
2022/05/05 11:29:50;;;;;;;0.47;0.47;;;20.30;95.50;;;;;;4373240;32;20249;-69
2022/05/05 11:32:17;;;;;;;0.40;0.40;;;20.10;95.50;;;;;;4368061;32;20093;-69
2022/05/05 11:34:45;;;;;;;4.10;0.88;;;20.00;95.50;;;;;;4374368;32;20194;-68
2022/05/05 11:37:11;;;;;;;0.40;0.40;;;19.80;95.80;;;;;;4367358;32;20077;-69
2022/05/05 11:39:37;;;;;;;0.45;0.45;;;19.60;96.80;;;;;;4373474;32;20160;-69
2022/05/05 11:42:06;;;;;;;2.45;0.80;;;19.50;96.70;;;;;;4360407;32;20417;-68
2022/05/05 11:44:36;;;;;;;0.55;0.55;;;19.30;97.10;;;;;;4359318;32;20089;-70
2022/05/05 11:47:22;;;;;;;0.30;0.30;;;19.50;97.50;;;;;;4373903;32;20148;-69
2022/05/05 11:49:51;;;;;;;0.40;0.40;;;19.50;96.90;;;;;;4351830;32;20201;-70
2022/05/05 11:52:19;;;;;;;0.80;0.80;;;19.80;96.20;;;;;;4374655;32;20501;-70
2022/05/05 11:54:48;;;;;;;0.60;0.60;;;20.60;94.80;;;;;;4383375;32;20609;-70
2022/05/05 11:57:35;;;;;;;0.50;0.50;;;20.80;94.90;;;;;;4386887;32;20352;-70
2022/05/05 12:02:04;;;;;;;0.30;0.30;;;20.70;94.90;;;;;;4379469;32;20208;-69
2022/05/05 12:02:49;;;;;;;3.92;0.45;;;20.40;94.60;;;;;;4387115;32;20077;-70
2022/05/05 12:05:14;;;;;;;0.30;0.30;;;20.40;95.50;;;;;;4386306;32;20212;-69
2022/05/05 12:07:44;;;;;;;1.27;0.93;;;20.00;95.20;;;;;;4399672;32;20620;-69
2022/05/05 12:10:12;;;;;;;0.50;0.50;;;20.00;95.30;;;;;;4392098;32;20101;-69
2022/05/05 12:12:44;;;;;;;0.50;0.50;;;21.00;94.90;;;;;;4394007;32;20066;-69
2022/05/05 12:15:11;;;;;;;0.62;0.62;;;21.60;93.10;;;;;;4387286;32;20741;-69
2022/05/05 12:17:42;;;;;;;0.40;0.40;;;21.50;91.90;;;;;;4383453;32;20312;-69
2022/05/05 12:20:11;;;;;;;0.40;0.40;;;21.10;92.60;;;;;;4384124;32;21512;-69
2022/05/05 12:22:39;;;;;;;0.20;0.20;;;20.60;92.60;;;;;;4390592;32;20754;-68
2022/05/05 12:25:17;;;;;;;0.47;0.47;;;20.30;92.80;;;;;;4400938;32;20200;-68
2022/05/05 12:28:00;;;;;;;0.30;0.30;;;20.00;93.50;;;;;;4397768;32;20122;-70
2022/05/05 12:30:44;;;;;;;0.60;0.60;;;19.60;93.60;;;;;;4391263;32;20081;-70
2022/05/05 12:33:15;;;;;;;7.47;0.62;;;19.40;93.00;;;;;;4385226;32;20082;-69
2022/05/05 12:35:43;;;;;;;1.67;0.77;;;19.30;93.80;;;;;;4390863;32;20321;-70
2022/05/05 12:38:12;;;;;;;6.78;0.68;;;19.60;93.60;;;;;;4392250;32;20093;-69
2022/05/05 12:40:42;;;;;;;0.45;0.45;;;20.40;92.70;;;;;;4389985;32;20065;-70
2022/05/05 12:43:11;;;;;;;0.40;0.40;;;21.50;91.80;;;;;;4383151;32;20186;-70
2022/05/05 12:45:37;;;;;;;0.30;0.30;;;22.50;90.30;;;;;;4379524;32;20862;-70
2022/05/05 12:48:06;;;;;;;0.30;0.30;;;22.80;87.20;;;;;;4389469;32;20081;-69
2022/05/05 12:50:36;;;;;;;0.30;0.30;;;23.30;86.60;;;;;;4388177;32;20270;-69
2022/05/05 12:59:55;;;;;;;0.25;0.25;;;22.40;85.60;;;;;;4383316;32;20608;-69
2022/05/05 13:01:43;;;;;;;0.40;0.40;;;21.50;89.70;;;;;;4380957;32;20097;-69
2022/05/05 13:04:12;;;;;;;0.22;0.22;;;21.00;90.30;;;;;;4386564;32;20123;-70
2022/05/05 13:06:39;;;;;;;0.35;0.35;;;21.10;89.70;;;;;;4399594;32;20514;-69
2022/05/05 13:09:08;;;;;;;0.35;0.35;;;21.00;90.30;;;;;;4399142;32;20360;-68
2022/05/05 13:11:33;;;;;;;0.30;0.30;;;20.80;90.50;;;;;;4388290;32;20126;-69
2022/05/05 13:13:59;;;;;;;0.32;0.32;;;20.60;90.00;;;;;;4379373;32;20215;-68
2022/05/05 13:16:27;;;;;;;1.67;0.50;;;20.40;91.00;;;;;;4370650;32;20200;-69